Time;durP1;ratioP1;P1;durP2;ratioP2;P2;SDS_P1;SDS_P2;PMS_P1;PMS_P2;Temp;Humidity;BMP_temperature;BMP_pressure;BME280_temperature;BME280_humidity;BME280_pressure;Samples;Min_cycle;Max_cycle;Signal;HPM_P1;HPM_P2
2022/02/07 00:00:03;;;;;;;57.75;32.03;;;;;;;3.33;70.31;100025.91;5088220;28;20063;-20
2022/02/07 00:02:49;;;;;;;51.78;29.52;;;;;;;3.33;69.11;100016.22;5088147;28;20030;-21
2022/02/07 00:05:16;;;;;;;43.25;26.17;;;;;;;3.25;70.10;100025.97;5087941;28;20032;-20
2022/02/07 00:07:41;;;;;;;42.57;25.30;;;;;;;3.18;70.18;100024.00;5088566;28;20032;-20
2022/02/07 00:10:07;;;;;;;44.08;25.45;;;;;;;3.43;69.32;100026.53;5088077;28;20509;-20
2022/02/07 00:12:32;;;;;;;43.75;23.38;;;;;;;3.35;69.66;100018.66;5087785;28;20047;-21
2022/02/07 00:14:58;;;;;;;36.90;22.85;;;;;;;3.66;68.48;100009.91;5088184;28;20412;-21
2022/02/07 00:17:23;;;;;;;37.03;22.50;;;;;;;3.71;67.69;100015.50;5087906;28;20649;-21
2022/02/07 00:19:49;;;;;;;36.03;20.70;;;;;;;3.44;67.82;100001.81;5087931;28;20031;-21
2022/02/07 00:22:14;;;;;;;36.17;21.30;;;;;;;3.30;68.91;100002.56;5069742;28;20051;-21
2022/02/07 00:24:40;;;;;;;36.65;21.60;;;;;;;3.43;68.62;99992.25;5087723;28;20024;-21
2022/02/07 00:27:05;;;;;;;35.83;22.25;;;;;;;3.18;68.55;99973.94;5089116;28;20036;-21
2022/02/07 00:29:31;;;;;;;34.58;19.67;;;;;;;3.51;67.43;99984.28;5091943;28;20054;-20
2022/02/07 00:31:56;;;;;;;36.97;21.73;;;;;;;3.63;67.53;99988.16;5091811;28;20039;-21
2022/02/07 00:34:22;;;;;;;39.00;24.05;;;;;;;3.38;68.36;99984.06;5091747;28;20028;-21
2022/02/07 00:36:47;;;;;;;31.15;19.13;;;;;;;3.42;68.17;99972.19;5091371;28;20031;-22
2022/02/07 00:39:20;;;;;;;33.13;19.60;;;;;;;3.30;68.24;99955.13;5092100;28;20404;-20
2022/02/07 00:41:59;;;;;;;31.02;18.38;;;;;;;3.34;68.42;99959.03;5091712;28;20119;-20
2022/02/07 00:44:25;;;;;;;35.45;19.90;;;;;;;2.99;68.56;99940.13;5091418;28;20465;-21
2022/02/07 00:46:57;;;;;;;36.38;20.77;;;;;;;2.73;68.82;99933.31;5091632;28;20040;-21
2022/02/07 00:49:23;;;;;;;37.95;21.48;;;;;;;2.95;69.35;99952.81;5091384;28;20028;-21
2022/02/07 00:51:48;;;;;;;37.65;21.23;;;;;;;3.27;67.22;99932.56;5073109;28;20036;-20
2022/02/07 00:54:14;;;;;;;63.83;37.95;;;;;;;2.69;69.82;99939.94;5091645;28;20480;-21
2022/02/07 00:56:40;;;;;;;88.45;46.80;;;;;;;2.69;70.31;99920.69;5091129;28;20032;-20
2022/02/07 00:59:05;;;;;;;41.80;22.75;;;;;;;2.87;69.39;99923.06;5091155;28;20518;-20
2022/02/07 01:01:31;;;;;;;66.25;41.42;;;;;;;2.94;69.38;99913.47;5072737;28;20040;-21
2022/02/07 01:03:57;;;;;;;50.90;31.35;;;;;;;3.18;67.69;99897.53;5091059;28;20515;-28
2022/02/07 01:06:22;;;;;;;37.78;24.30;;;;;;;2.86;68.61;99895.09;5091144;28;20039;-20
2022/02/07 01:08:53;;;;;;;33.58;20.02;;;;;;;2.46;70.26;99902.19;5090741;28;20093;-20
2022/02/07 01:11:42;;;;;;;32.80;20.10;;;;;;;2.70;68.38;99907.34;5091153;28;20032;-21
2022/02/07 01:17:33;;;;;;;36.20;20.80;;;;;;;3.07;68.22;99891.84;5054882;28;20038;-20
2022/02/07 01:50:24;;;;;;;29.63;16.58;;;;;;;1.79;70.30;99800.78;5090427;28;20407;-20
2022/02/07 01:57:58;;;;;;;29.67;17.02;;;;;;;1.51;70.94;99816.94;5089903;28;20490;-21
2022/02/07 02:00:24;;;;;;;23.88;14.65;;;;;;;1.33;70.44;99797.91;5090277;28;20031;-22
2022/02/07 02:02:49;;;;;;;28.85;15.45;;;;;;;1.48;70.85;99806.75;5090179;28;20020;-20
2022/02/07 02:05:15;;;;;;;27.33;16.50;;;;;;;1.26;71.33;99786.41;5090650;28;20586;-21
2022/02/07 02:07:41;;;;;;;29.52;16.40;;;;;;;0.73;72.61;99802.44;5072154;28;20031;-21
2022/02/07 02:10:07;;;;;;;27.77;16.25;;;;;;;1.10;71.77;99813.47;5072161;28;20507;-20
2022/02/07 02:12:39;;;;;;;29.13;17.58;;;;;;;1.04;72.00;99809.69;5071492;28;20051;-21
2022/02/07 02:34:52;;;;;;;26.55;16.63;;;;;;;0.55;73.59;99784.22;5089628;28;20530;-21
2022/02/07 02:37:09;;;;;;;28.17;18.08;;;;;;;1.28;72.14;99784.44;5074531;28;20871;-21
2022/02/07 02:47:47;;;;;;;39.33;20.30;;;;;;;0.77;75.48;99782.75;5073922;28;20047;-21
2022/02/07 02:50:28;;;;;;;38.97;20.75;;;;;;;0.73;75.55;99760.44;5087941;28;20070;-20
2022/02/07 02:52:58;;;;;;;43.08;21.33;;;;;;;1.18;73.64;99769.66;5089543;28;20177;-21
2022/02/07 02:55:23;;;;;;;37.60;19.33;;;;;;;1.11;73.99;99762.63;5088976;28;20027;-21
2022/02/07 02:57:48;;;;;;;40.38;21.58;;;;;;;1.39;73.11;99756.00;5089315;28;20039;-21
2022/02/07 03:00:14;;;;;;;34.85;19.17;;;;;;;0.79;73.60;99753.72;5088456;28;20056;-21
2022/02/07 03:02:40;;;;;;;34.83;18.98;;;;;;;0.93;74.78;99749.66;5088565;28;20040;-21
2022/02/07 03:05:05;;;;;;;36.05;19.75;;;;;;;0.91;73.98;99720.09;5088943;28;20031;-21
2022/02/07 03:07:31;;;;;;;32.33;18.10;;;;;;;1.18;72.25;99714.47;5088685;28;20107;-21
2022/02/07 03:09:59;;;;;;;34.10;18.55;;;;;;;0.82;73.38;99745.53;5070802;28;20784;-21
2022/02/07 03:12:26;;;;;;;33.22;17.85;;;;;;;1.19;72.72;99745.03;5088762;28;20024;-20
2022/02/07 03:14:52;;;;;;;28.63;17.42;;;;;;;0.89;73.89;99748.31;5088653;28;20028;-21
2022/02/07 03:17:18;;;;;;;33.83;18.27;;;;;;;0.78;75.32;99736.34;5088737;28;20024;-21
2022/02/07 03:19:43;;;;;;;29.52;17.10;;;;;;;1.12;75.56;99765.06;5070791;28;20060;-21
2022/02/07 03:22:09;;;;;;;33.08;17.52;;;;;;;0.91;73.67;99756.88;5088782;28;20024;-22
2022/02/07 03:24:34;;;;;;;30.88;17.83;;;;;;;1.18;73.98;99748.63;5070277;28;20035;-21
2022/02/07 03:27:00;;;;;;;32.08;17.73;;;;;;;1.43;73.76;99743.38;5088547;28;20056;-21
2022/02/07 03:29:25;;;;;;;28.70;16.80;;;;;;;1.23;72.96;99731.56;5088761;28;20396;-21
2022/02/07 03:31:51;;;;;;;24.20;15.35;;;;;;;1.31;72.30;99747.31;5088714;28;20729;-21
2022/02/07 03:34:16;;;;;;;25.77;14.80;;;;;;;1.30;72.05;99732.53;5088748;28;20031;-21
2022/02/07 03:36:42;;;;;;;23.20;14.93;;;;;;;1.58;70.05;99748.75;5070333;28;20028;-20
2022/02/07 03:39:08;;;;;;;38.65;25.42;;;;;;;1.29;70.97;99739.63;5088357;28;20119;-23
2022/02/07 03:41:33;;;;;;;68.90;42.72;;;;;;;0.80;73.05;99739.63;5088574;28;20110;-21
2022/02/07 03:43:59;;;;;;;31.58;18.95;;;;;;;0.31;74.41;99734.31;5070208;28;20032;-21
2022/02/07 03:46:24;;;;;;;33.58;18.27;;;;;;;-0.27;75.56;99730.66;5088038;28;20024;-22
2022/02/07 03:48:50;;;;;;;35.13;19.55;;;;;;;-0.27;75.57;99720.19;5088170;28;20385;-20
2022/02/07 03:51:15;;;;;;;27.50;16.33;;;;;;;0.33;74.85;99712.19;5088499;28;20024;-20
2022/02/07 03:53:41;;;;;;;36.08;24.88;;;;;;;0.48;73.69;99717.63;5088335;28;20043;-20
2022/02/07 03:56:06;;;;;;;38.83;22.05;;;;;;;-0.08;75.68;99719.09;5088165;28;20388;-20
2022/02/07 03:58:32;;;;;;;32.28;19.33;;;;;;;-0.12;74.84;99718.63;5069707;28;20064;-21
2022/02/07 04:00:58;;;;;;;35.38;19.45;;;;;;;-0.47;75.92;99699.47;5069802;28;20036;-20
2022/02/07 04:03:27;;;;;;;40.53;24.80;;;;;;;-0.30;75.40;99715.28;5070173;28;20028;-21
2022/02/07 04:06:07;;;;;;;48.72;27.73;;;;;;;-0.17;75.47;99715.63;5088050;28;20111;-21
2022/02/07 04:08:37;;;;;;;65.50;32.78;;;;;;;-0.33;75.53;99718.19;5087912;28;20100;-21
2022/02/07 04:11:53;;;;;;;113.60;60.22;;;;;;;0.38;74.35;99709.91;5070407;28;20134;-21
2022/02/07 04:13:54;;;;;;;74.85;41.15;;;;;;;0.53;73.24;99685.63;5065138;28;20059;-21
2022/02/07 04:16:20;;;;;;;54.85;31.88;;;;;;;0.74;72.66;99714.84;5070320;28;20017;-20
2022/02/07 04:19:14;;;;;;;49.40;27.85;;;;;;;0.47;72.78;99707.28;5087668;28;20032;-21
2022/02/07 04:21:34;;;;;;;46.78;27.35;;;;;;;0.11;73.54;99702.31;5058627;28;20043;-21
2022/02/07 04:24:00;;;;;;;46.72;25.92;;;;;;;-0.29;76.17;99690.69;5087837;28;20465;-21
2022/02/07 04:26:25;;;;;;;55.95;29.50;;;;;;;0.38;74.32;99691.53;5069230;28;20032;-20
2022/02/07 04:28:51;;;;;;;89.63;53.35;;;;;;;0.33;74.12;99680.72;5087648;28;20031;-20
2022/02/07 04:31:17;;;;;;;60.22;36.70;;;;;;;0.20;75.13;99680.34;5069483;28;20480;-21
2022/02/07 04:33:42;;;;;;;53.75;31.25;;;;;;;0.91;72.85;99694.66;5087592;28;20157;-21
2022/02/07 04:36:08;;;;;;;60.30;37.75;;;;;;;1.09;71.80;99670.84;5087654;28;20053;-22
2022/02/07 04:38:33;;;;;;;81.55;49.63;;;;;;;0.93;71.52;99676.94;5087508;28;20039;-21
2022/02/07 04:40:58;;;;;;;69.88;37.20;;;;;;;0.29;74.67;99658.41;5069576;28;20028;-20
2022/02/07 04:43:24;;;;;;;72.65;41.40;;;;;;;0.38;74.71;99678.41;5069442;28;20488;-21
2022/02/07 04:46:06;;;;;;;60.20;36.78;;;;;;;0.37;74.44;99655.81;5069430;28;20036;-21
2022/02/07 05:01:14;;;;;;;;;;;;;;;0.76;72.25;99709.44;5069814;28;20606;-21
2022/02/07 05:03:51;;;;;;;26.70;14.38;;;;;;;0.02;73.56;99709.34;5070141;28;19938;-20
2022/02/07 05:14:30;;;;;;;26.17;15.93;;;;;;;0.31;73.40;99705.47;5088784;28;20050;-20
2022/02/07 05:16:57;;;;;;;27.43;14.93;;;;;;;0.37;72.65;99697.78;5090804;28;20028;-21
2022/02/07 05:19:22;;;;;;;26.13;14.23;;;;;;;0.60;71.30;99681.41;5090783;28;20274;-21
2022/02/07 05:21:48;;;;;;;22.98;13.27;;;;;;;-0.14;73.18;99683.88;5090559;28;20399;-21
2022/02/07 05:24:14;;;;;;;26.50;14.00;;;;;;;-0.53;75.18;99694.88;5090410;28;20131;-20
2022/02/07 05:26:39;;;;;;;27.70;15.80;;;;;;;-0.60;73.45;99693.84;5090406;28;20107;-21
2022/02/07 05:29:06;;;;;;;24.77;14.90;;;;;;;-0.77;73.46;99681.63;5090886;28;20040;-21
2022/02/07 05:31:31;;;;;;;31.95;18.60;;;;;;;-0.36;72.93;99668.75;5090507;28;20024;-21
2022/02/07 05:33:57;;;;;;;58.97;38.03;;;;;;;-0.08;72.14;99667.53;5072308;28;20046;-21
2022/02/07 05:36:23;;;;;;;34.03;22.10;;;;;;;-0.12;71.99;99663.59;5072265;28;20395;-21
2022/02/07 05:38:51;;;;;;;40.30;26.60;;;;;;;0.46;71.14;99693.34;5089852;28;20032;-21
2022/02/07 05:41:18;;;;;;;38.83;25.50;;;;;;;-0.01;71.60;99689.47;5090610;28;20066;-20
2022/02/07 05:43:48;;;;;;;122.65;52.15;;;;;;;-0.37;73.41;99694.09;5072374;28;20032;-22
2022/02/07 05:46:14;;;;;;;99.40;42.28;;;;;;;-0.61;73.10;99668.63;5090277;28;20488;-20
2022/02/07 05:48:39;;;;;;;45.75;24.80;;;;;;;-0.61;74.24;99700.06;5090110;28;20089;-20
2022/02/07 05:51:05;;;;;;;54.15;26.85;;;;;;;-0.36;73.71;99695.75;5090072;28;20530;-21
2022/02/07 05:53:30;;;;;;;53.92;28.00;;;;;;;-0.34;74.81;99698.22;5089968;28;20077;-20
2022/02/07 05:55:56;;;;;;;60.50;31.98;;;;;;;0.01;73.29;99699.81;5090208;28;20032;-22
2022/02/07 05:58:21;;;;;;;63.60;33.35;;;;;;;-0.30;74.31;99705.59;5089906;28;20032;-21
2022/02/07 06:00:47;;;;;;;71.13;37.42;;;;;;;-0.13;74.69;99690.75;5089926;28;20039;-21
2022/02/07 06:03:12;;;;;;;57.60;32.00;;;;;;;-0.03;73.83;99696.69;5089917;28;20024;-20
2022/02/07 06:05:38;;;;;;;60.65;34.85;;;;;;;0.10;72.50;99666.56;5090053;28;20039;-21
2022/02/07 06:08:03;;;;;;;50.08;28.73;;;;;;;0.36;72.58;99701.38;5089791;28;20039;-21
2022/02/07 06:10:29;;;;;;;43.63;24.70;;;;;;;0.44;73.26;99691.88;5089629;28;20456;-21
2022/02/07 06:12:54;;;;;;;31.88;20.42;;;;;;;0.75;72.89;99700.75;5089935;28;20039;-21
2022/02/07 06:15:20;;;;;;;37.33;21.23;;;;;;;0.83;73.25;99691.22;5089637;28;20028;-20
2022/02/07 06:17:52;;;;;;;39.33;23.13;;;;;;;0.60;73.35;99676.16;5089697;28;20135;-21
2022/02/07 06:20:18;;;;;;;36.90;22.08;;;;;;;1.08;72.75;99674.44;5089402;28;20028;-20
2022/02/07 06:22:45;;;;;;;43.58;25.15;;;;;;;0.64;74.51;99666.97;5089483;28;20495;-20
2022/02/07 06:25:11;;;;;;;48.70;28.08;;;;;;;1.04;73.39;99678.41;5089645;28;20035;-21
2022/02/07 06:27:36;;;;;;;42.10;25.40;;;;;;;1.30;72.58;99678.19;5089565;28;20028;-21
2022/02/07 06:30:03;;;;;;;38.85;23.25;;;;;;;1.45;73.20;99674.84;5089887;28;20032;-20
2022/02/07 06:32:28;;;;;;;40.78;26.15;;;;;;;1.62;72.93;99670.38;5089052;28;20031;-20
2022/02/07 06:34:54;;;;;;;43.28;25.00;;;;;;;1.51;73.78;99658.41;5089149;28;20024;-20
2022/02/07 06:37:19;;;;;;;43.78;26.40;;;;;;;1.76;73.46;99657.34;5089096;28;20036;-20
2022/02/07 06:39:44;;;;;;;66.07;35.88;;;;;;;1.42;75.04;99648.94;5089556;28;20032;-20
2022/02/07 06:42:10;;;;;;;50.55;29.73;;;;;;;1.34;76.21;99641.91;5089315;28;20032;-20
2022/02/07 06:44:35;;;;;;;170.32;74.38;;;;;;;1.70;75.92;99657.22;5089270;28;20087;-21
2022/02/07 06:47:01;;;;;;;500.40;258.45;;;;;;;1.76;74.84;99651.25;5089210;28;20031;-20
2022/02/07 06:49:26;;;;;;;93.28;58.35;;;;;;;2.15;74.15;99660.91;5089004;28;20032;-20
2022/02/07 06:51:52;;;;;;;106.13;73.82;;;;;;;2.25;73.01;99644.88;5089213;28;20043;-21
2022/02/07 06:54:17;;;;;;;122.78;85.35;;;;;;;2.35;72.67;99646.31;5088882;28;20032;-21
2022/02/07 06:56:45;;;;;;;79.70;52.50;;;;;;;2.35;73.35;99670.00;5088952;28;20032;-21
2022/02/07 06:59:15;;;;;;;76.03;48.08;;;;;;;2.55;73.10;99656.34;5088807;28;20059;-21
2022/02/07 07:01:40;;;;;;;162.73;107.45;;;;;;;2.65;73.47;99666.63;5088685;28;20406;-20
2022/02/07 07:04:05;;;;;;;58.47;38.53;;;;;;;2.74;73.10;99670.84;5088565;28;20039;-20
2022/02/07 07:06:31;;;;;;;47.55;33.83;;;;;;;2.77;72.80;99655.50;5088799;28;20650;-20
2022/02/07 07:08:56;;;;;;;54.95;32.15;;;;;;;2.93;72.64;99653.72;5070671;28;20039;-20
2022/02/07 07:11:25;;;;;;;46.33;28.48;;;;;;;2.64;73.95;99644.75;5088675;28;20024;-20
2022/02/07 07:14:06;;;;;;;48.20;34.30;;;;;;;2.93;73.17;99643.19;5088747;28;20031;-21
2022/02/07 07:19:03;;;;;;;69.95;42.30;;;;;;;3.09;73.61;99632.47;5088491;28;20055;-21
2022/02/07 07:21:29;;;;;;;60.30;37.53;;;;;;;3.24;73.53;99636.94;5088506;28;20036;-20
2022/02/07 07:23:54;;;;;;;72.78;43.83;;;;;;;3.16;74.07;99641.28;5088516;28;20023;-20
2022/02/07 07:26:23;;;;;;;46.55;28.98;;;;;;;3.21;74.03;99635.50;5070104;28;20048;-21
2022/02/07 07:28:48;;;;;;;42.28;24.80;;;;;;;3.51;73.18;99636.28;5088009;28;20463;-21
2022/02/07 07:31:15;;;;;;;37.95;24.00;;;;;;;3.62;72.43;99650.84;5087862;28;20028;-20
2022/02/07 07:33:43;;;;;;;36.83;24.35;;;;;;;3.80;72.52;99655.69;5088533;28;20036;-21
2022/02/07 07:36:08;;;;;;;35.00;21.45;;;;;;;3.65;74.36;99647.81;5087930;28;20169;-21
2022/02/07 07:38:33;;;;;;;31.75;18.30;;;;;;;3.83;74.05;99642.16;5088690;28;20044;-20
2022/02/07 07:40:59;;;;;;;30.27;17.20;;;;;;;4.30;71.53;99656.66;5088302;28;20032;-20
2022/02/07 07:43:24;;;;;;;28.70;17.88;;;;;;;4.54;71.12;99630.91;5088275;28;20028;-20
2022/02/07 07:46:00;;;;;;;29.60;19.05;;;;;;;4.69;70.57;99638.72;5087978;28;20463;-20
2022/02/07 07:48:27;;;;;;;29.85;18.25;;;;;;;4.96;70.36;99642.38;5071433;28;20491;-21
2022/02/07 07:53:41;;;;;;;30.23;19.58;;;;;;;5.10;69.79;99638.81;5088020;28;20036;-21
2022/02/07 08:01:45;;;;;;;32.70;20.08;;;;;;;4.89;71.14;99612.47;5049167;28;20082;-20
2022/02/07 08:04:13;;;;;;;38.97;23.52;;;;;;;5.29;70.09;99600.31;5087881;28;20084;-21
2022/02/07 08:06:45;;;;;;;43.47;29.08;;;;;;;5.49;68.85;99581.88;5087261;28;20050;-21
2022/02/07 08:11:39;;;;;;;48.03;34.78;;;;;;;6.11;67.62;99593.28;5087799;28;20027;-20
2022/02/07 08:14:05;;;;;;;35.03;22.05;;;;;;;6.14;67.44;99600.00;5088007;28;20084;-20
2022/02/07 08:16:31;;;;;;;39.13;24.77;;;;;;;6.57;66.56;99610.22;5087363;28;20032;-21
2022/02/07 08:19:01;;;;;;;34.42;23.10;;;;;;;6.61;65.94;99612.25;5087873;28;20064;-20
2022/02/07 08:21:27;;;;;;;34.30;21.70;;;;;;;6.51;66.33;99584.56;5087578;28;20039;-20
2022/02/07 08:23:53;;;;;;;35.50;21.33;;;;;;;6.78;65.23;99585.34;5087970;28;20134;-20
2022/02/07 08:26:18;;;;;;;36.45;23.58;;;;;;;7.10;64.46;99578.34;5087568;28;20032;-20
2022/02/07 08:28:44;;;;;;;45.38;27.88;;;;;;;7.22;64.72;99584.66;5087497;28;20035;-20
2022/02/07 08:31:09;;;;;;;36.38;21.95;;;;;;;7.36;63.91;99563.41;5087681;28;20385;-21
2022/02/07 08:33:35;;;;;;;35.38;19.50;;;;;;;7.44;63.90;99563.16;5087649;28;20032;-20
2022/02/07 08:36:00;;;;;;;30.52;20.55;;;;;;;7.36;62.84;99556.25;5087594;28;20411;-21
2022/02/07 08:38:26;;;;;;;35.13;21.65;;;;;;;7.55;65.17;99561.69;5087318;28;20028;-21
2022/02/07 08:40:51;;;;;;;27.70;18.55;;;;;;;6.68;67.93;99564.59;5087787;28;20527;-21
2022/02/07 08:43:17;;;;;;;30.30;17.60;;;;;;;6.01;69.58;99569.84;5069541;28;20036;-20
2022/02/07 08:45:42;;;;;;;28.23;20.05;;;;;;;6.40;68.27;99573.56;5087680;28;20063;-20
2022/02/07 08:48:09;;;;;;;31.65;19.83;;;;;;;6.07;70.35;99546.22;5087628;28;20108;-20
2022/02/07 08:50:34;;;;;;;31.77;19.92;;;;;;;6.60;68.37;99539.09;5090809;28;20035;-20
2022/02/07 08:53:02;;;;;;;31.23;20.15;;;;;;;6.48;69.04;99545.22;5091534;28;20087;-20
2022/02/07 08:57:59;;;;;;;;;;;;;;;6.49;69.92;99544.22;5092017;28;20036;-20
2022/02/07 09:01:39;;;;;;;30.15;19.10;;;;;;;7.36;65.44;99540.31;5072955;28;19923;-20
2022/02/07 09:11:14;;;;;;;33.28;21.33;;;;;;;8.63;62.36;99508.41;5090973;28;20454;-21
2022/02/07 09:13:42;;;;;;;26.25;17.20;;;;;;;8.23;62.18;99511.41;5090911;28;20028;-20
2022/02/07 09:18:39;;;;;;;31.20;20.60;;;;;;;8.61;61.58;99501.69;5090662;28;20396;-21
2022/02/07 09:21:06;;;;;;;28.23;19.38;;;;;;;8.38;62.19;99487.16;5072552;28;20788;-20
2022/02/07 09:23:31;;;;;;;31.15;19.35;;;;;;;8.23;61.88;99476.06;5090741;28;20043;-20
2022/02/07 09:25:57;;;;;;;29.38;20.58;;;;;;;8.49;61.00;99482.19;5090411;28;20292;-22
2022/02/07 09:28:22;;;;;;;33.30;21.08;;;;;;;8.44;61.83;99491.63;5090806;28;20142;-21
2022/02/07 09:30:48;;;;;;;32.42;20.88;;;;;;;8.99;61.39;99479.38;5083337;28;20102;-21
2022/02/07 09:33:13;;;;;;;27.50;19.50;;;;;;;9.56;58.78;99473.75;5058929;28;20518;-21
2022/02/07 09:35:39;;;;;;;26.27;18.38;;;;;;;9.65;59.71;99457.25;5081120;28;20031;-20
2022/02/07 09:38:04;;;;;;;25.52;19.10;;;;;;;9.73;57.32;99452.63;5070264;28;20515;-21
2022/02/07 09:40:30;;;;;;;28.42;20.08;;;;;;;9.65;58.06;99413.84;5069992;28;20032;-20
2022/02/07 09:42:58;;;;;;;28.17;18.90;;;;;;;9.84;58.49;99420.69;5070491;28;20029;-20
2022/02/07 09:45:32;;;;;;;29.45;19.33;;;;;;;9.20;59.38;99407.09;5070290;28;20029;-21
2022/02/07 09:47:58;;;;;;;29.27;20.27;;;;;;;9.45;58.72;99417.59;5069947;28;20043;-21
2022/02/07 09:50:24;;;;;;;32.08;21.70;;;;;;;10.01;57.75;99417.34;5069953;28;20033;-22
2022/02/07 09:52:50;;;;;;;31.13;20.70;;;;;;;10.32;57.23;99405.56;5069820;28;20519;-20
2022/02/07 09:55:15;;;;;;;30.08;19.80;;;;;;;10.34;56.39;99400.81;5070060;28;20524;-20
2022/02/07 09:57:41;;;;;;;56.03;37.35;;;;;;;10.73;55.48;99403.75;5051939;28;20037;-21
2022/02/07 10:00:08;;;;;;;267.05;159.80;;;;;;;10.94;54.18;99396.16;5069339;28;20052;-21
2022/02/07 10:03:02;;;;;;;82.88;53.95;;;;;;;11.25;54.48;99397.53;5069459;28;20066;-21
2022/02/07 10:05:29;;;;;;;42.35;27.17;;;;;;;11.37;54.42;99378.78;5069735;28;20041;-20
2022/02/07 10:08:06;;;;;;;30.73;20.13;;;;;;;11.39;54.18;99377.50;5069550;28;20497;-20
2022/02/07 10:13:37;;;;;;;31.15;20.80;;;;;;;12.13;51.82;99362.34;5069564;28;20504;-20
2022/02/07 10:16:29;;;;;;;82.88;38.00;;;;;;;11.43;52.96;99343.13;5069338;28;20071;-20
2022/02/07 10:40:53;;;;;;;27.55;18.80;;;;;;;11.37;52.54;99280.00;5069235;28;20450;-20
2022/02/07 10:43:32;;;;;;;41.15;23.95;;;;;;;11.34;52.67;99286.66;5069155;28;20509;-21
2022/02/07 10:46:16;;;;;;;30.73;20.33;;;;;;;11.62;52.18;99291.06;5069050;28;20039;-20
2022/02/07 10:48:53;;;;;;;73.45;37.30;;;;;;;11.98;52.83;99286.28;5068337;28;20032;-20
2022/02/07 10:51:22;;;;;;;65.25;32.85;;;;;;;12.21;50.62;99284.41;5068485;28;20040;-20
2022/02/07 10:53:53;;;;;;;57.40;31.58;;;;;;;12.26;51.17;99281.81;5069162;28;20039;-20
2022/02/07 10:56:37;;;;;;;258.42;150.05;;;;;;;12.27;51.47;99270.06;5068735;28;20032;-20
2022/02/07 10:59:06;;;;;;;71.40;57.95;;;;;;;11.85;54.55;99252.69;5068541;28;20064;-21
2022/02/07 11:02:02;;;;;;;750.50;353.08;;;;;;;12.18;53.87;99250.19;5050806;28;20029;-20
2022/02/07 11:04:28;;;;;;;73.18;64.93;;;;;;;12.17;54.09;99232.50;5068344;28;20052;-21
2022/02/07 11:06:59;;;;;;;89.20;80.95;;;;;;;12.31;54.59;99243.63;5068494;28;20404;-21
2022/02/07 11:09:37;;;;;;;47.00;41.85;;;;;;;12.13;55.41;99232.19;5051416;28;20039;-20
2022/02/07 11:23:04;;;;;;;49.88;44.90;;;;;;;12.40;52.27;99183.28;5050866;28;20119;-20
2022/02/07 11:27:56;;;;;;;57.28;46.38;;;;;;;12.60;52.01;99190.72;5051919;28;20029;-21
2022/02/07 11:30:41;;;;;;;46.67;28.52;;;;;;;12.75;50.96;99182.00;5068114;28;20032;-21
2022/02/07 11:33:08;;;;;;;20.00;16.75;;;;;;;13.10;49.57;99173.47;5068513;28;20020;-20
2022/02/07 11:35:50;;;;;;;20.75;18.35;;;;;;;12.93;51.46;99175.47;5050095;28;20071;-22
2022/02/07 11:38:17;;;;;;;18.85;15.35;;;;;;;13.13;50.28;99162.22;5068327;28;20031;-20
2022/02/07 11:40:55;;;;;;;20.37;17.20;;;;;;;13.16;51.11;99158.25;5067794;28;20040;-20
2022/02/07 11:43:24;;;;;;;18.65;15.18;;;;;;;13.03;52.51;99146.09;5049672;28;20715;-20
2022/02/07 11:45:50;;;;;;;22.20;18.65;;;;;;;13.35;52.45;99145.28;5050630;28;20111;-20
2022/02/07 11:48:18;;;;;;;18.83;16.42;;;;;;;13.82;50.98;99136.38;5067937;28;20112;-21
2022/02/07 11:50:44;;;;;;;20.70;16.52;;;;;;;13.99;49.76;99115.50;5067773;28;20028;-20
2022/02/07 11:53:10;;;;;;;16.80;12.18;;;;;;;14.72;46.12;99122.59;5067895;28;20409;-21
2022/02/07 11:55:44;;;;;;;15.38;10.68;;;;;;;14.92;47.94;99137.09;5067780;28;20033;-20
2022/02/07 11:58:15;;;;;;;15.70;11.68;;;;;;;14.98;45.61;99125.25;5068124;28;20135;-22
2022/02/07 12:00:46;;;;;;;14.20;9.32;;;;;;;14.85;45.31;99116.69;5050368;28;20047;-20
2022/02/07 12:03:13;;;;;;;14.73;9.65;;;;;;;14.72;45.88;99103.00;5068077;28;20039;-21
2022/02/07 12:05:46;;;;;;;15.55;9.95;;;;;;;15.20;45.53;99101.59;5049509;28;20619;-20
2022/02/07 12:08:17;;;;;;;15.35;9.43;;;;;;;16.12;43.01;99092.34;5049675;28;20024;-21
2022/02/07 12:10:47;;;;;;;15.80;9.93;;;;;;;16.20;44.13;99080.97;5067624;28;20028;-20
2022/02/07 12:13:27;;;;;;;15.73;10.25;;;;;;;16.47;43.09;99095.84;5067788;28;20104;-20
2022/02/07 12:15:55;;;;;;;12.45;8.80;;;;;;;15.99;43.48;99090.25;5067438;28;20029;-20
2022/02/07 12:18:21;;;;;;;12.52;8.45;;;;;;;15.99;43.37;99099.13;5067677;28;20025;-20
2022/02/07 12:21:09;;;;;;;10.85;7.72;;;;;;;15.73;42.61;99114.56;5067180;28;20029;-20
2022/02/07 12:23:35;;;;;;;11.65;7.75;;;;;;;15.53;43.07;99099.34;5051971;28;20051;-21
2022/02/07 12:26:08;;;;;;;11.13;8.43;;;;;;;15.48;43.74;99102.03;5053462;28;20496;-21
2022/02/07 12:33:30;;;;;;;14.65;10.38;;;;;;;14.29;47.83;99107.81;5071673;28;20036;-21
2022/02/07 12:36:00;;;;;;;13.63;10.10;;;;;;;13.79;49.23;99104.72;5071566;28;20029;-20
2022/02/07 12:38:28;;;;;;;16.58;11.02;;;;;;;13.59;49.63;99111.66;5070860;28;20393;-20
2022/02/07 12:40:53;;;;;;;17.35;11.25;;;;;;;13.48;50.81;99088.53;5053549;28;20039;-20
2022/02/07 12:43:20;;;;;;;16.75;11.40;;;;;;;13.30;50.53;99078.28;5071266;28;20029;-20
2022/02/07 12:45:45;;;;;;;16.98;11.50;;;;;;;13.35;50.33;99083.69;5052919;28;20036;-21
2022/02/07 12:48:14;;;;;;;16.25;11.57;;;;;;;13.21;50.83;99083.31;5053106;28;20094;-20
2022/02/07 12:50:41;;;;;;;14.88;10.68;;;;;;;13.06;51.10;99076.00;5071085;28;20040;-20
2022/02/07 12:53:06;;;;;;;18.10;12.68;;;;;;;12.95;52.54;99061.75;5071118;28;20040;-20
2022/02/07 12:55:32;;;;;;;18.67;13.25;;;;;;;12.65;54.33;99078.44;5071150;28;20036;-20
2022/02/07 12:57:57;;;;;;;23.70;15.20;;;;;;;12.54;55.01;99084.75;5053229;28;20509;-20
2022/02/07 13:00:23;;;;;;;21.67;14.48;;;;;;;12.80;55.54;99073.16;5035673;28;20060;-20
2022/02/07 13:02:48;;;;;;;21.60;13.93;;;;;;;12.66;54.76;99058.63;5052572;28;20051;-20
2022/02/07 13:05:18;;;;;;;19.75;13.45;;;;;;;12.37;54.84;99053.59;5071008;28;20519;-20
2022/02/07 13:07:47;;;;;;;23.25;14.95;;;;;;;12.28;55.79;99055.16;5070696;28;20602;-20
2022/02/07 13:10:16;;;;;;;23.55;16.35;;;;;;;12.11;55.99;99025.84;5070787;28;20032;-20
2022/02/07 13:15:34;;;;;;;23.10;15.65;;;;;;;11.99;57.79;99035.91;5055870;28;20392;-20
2022/02/07 13:18:04;;;;;;;21.80;15.52;;;;;;;11.97;58.22;99032.66;5070843;28;20060;-20
2022/02/07 13:20:29;;;;;;;22.00;14.73;;;;;;;11.79;57.31;99025.78;5070515;28;20040;-20
2022/02/07 13:23:05;;;;;;;25.67;16.67;;;;;;;11.99;56.52;99004.66;5070631;28;20036;-20
2022/02/07 13:25:44;;;;;;;27.65;17.70;;;;;;;11.99;56.09;99004.66;5070387;28;20032;-20
2022/02/07 13:28:11;;;;;;;26.70;17.83;;;;;;;12.01;54.88;98991.84;5070603;28;20118;-21
2022/02/07 13:30:41;;;;;;;29.15;18.65;;;;;;;12.19;54.79;99019.25;5070582;28;20101;-20
2022/02/07 13:33:07;;;;;;;26.58;18.05;;;;;;;12.11;55.03;99011.69;5052661;28;20032;-20
2022/02/07 13:35:38;;;;;;;24.92;18.75;;;;;;;12.10;55.94;99002.06;5069557;28;20527;-20
2022/02/07 13:38:06;;;;;;;30.75;16.55;;;;;;;12.05;55.54;99009.00;5070119;28;20037;-20
2022/02/07 13:40:41;;;;;;;31.38;20.45;;;;;;;12.02;54.77;98982.75;5070217;28;20408;-20
2022/02/07 13:43:26;;;;;;;25.55;17.77;;;;;;;12.45;54.76;98994.31;5070330;28;20032;-20
2022/02/07 13:45:56;;;;;;;23.40;16.52;;;;;;;12.39;55.02;99007.91;5070280;28;20024;-20
2022/02/07 13:48:27;;;;;;;21.08;15.15;;;;;;;12.30;54.90;98994.22;5069920;28;20703;-20
2022/02/07 13:50:54;;;;;;;25.60;15.98;;;;;;;12.16;55.97;98982.34;5070194;28;20111;-21
2022/02/07 13:53:21;;;;;;;28.83;18.70;;;;;;;12.05;55.48;98998.31;5069731;28;20047;-20
2022/02/07 13:55:51;;;;;;;43.45;33.03;;;;;;;12.01;55.86;98989.19;5070146;28;20047;-21
2022/02/07 13:58:18;;;;;;;25.40;16.90;;;;;;;12.06;56.82;98978.53;5069736;28;20032;-20
2022/02/07 14:00:49;;;;;;;19.73;14.70;;;;;;;12.03;56.42;98956.84;5069814;28;20413;-20
2022/02/07 14:03:32;;;;;;;20.90;14.65;;;;;;;12.25;56.60;98968.22;5069728;28;20485;-20
2022/02/07 14:06:01;;;;;;;21.13;14.68;;;;;;;11.95;56.80;98949.28;5069775;28;20028;-22